sensor_id;sensor_type;location;lat;lon;timestamp;pressure;altitude;pressure_sealevel;temperature;humidity
40384;BME280;26097;42.366;23.818;2022-10-22T00:02:58;94986.59;;;2.07;100.00
40384;BME280;26097;42.366;23.818;2022-10-22T00:05:58;94983.22;;;2.05;100.00
40384;BME280;26097;42.366;23.818;2022-10-22T00:08:59;94986.69;;;2.04;100.00
40384;BME280;26097;42.366;23.818;2022-10-22T00:11:59;94976.41;;;2.04;100.00
40384;BME280;26097;42.366;23.818;2022-10-22T00:15:00;94980.69;;;2.04;100.00
40384;BME280;26097;42.366;23.818;2022-10-22T00:18:00;94976.41;;;2.04;100.00
40384;BME280;26097;42.366;23.818;2022-10-22T00:21:01;94982.34;;;2.06;100.00
40384;BME280;26097;42.366;23.818;2022-10-22T00:24:02;94977.09;;;2.09;100.00
40384;BME280;26097;42.366;23.818;2022-10-22T00:27:03;94969.44;;;2.08;100.00
40384;BME280;26097;42.366;23.818;2022-10-22T00:30:04;94972.75;;;2.11;100.00
40384;BME280;26097;42.366;23.818;2022-10-22T00:33:05;94959.97;;;2.10;100.00
40384;BME280;26097;42.366;23.818;2022-10-22T00:36:06;94951.38;;;2.09;100.00
40384;BME280;26097;42.366;23.818;2022-10-22T00:39:07;94951.56;;;2.03;100.00
40384;BME280;26097;42.366;23.818;2022-10-22T00:42:12;94944.91;;;1.96;100.00
40384;BME280;26097;42.366;23.818;2022-10-22T00:45:25;94939.84;;;1.93;100.00
40384;BME280;26097;42.366;23.818;2022-10-22T00:48:28;94942.25;;;1.99;100.00
40384;BME280;26097;42.366;23.818;2022-10-22T00:51:32;94948.28;;;1.98;100.00
40384;BME280;26097;42.366;23.818;2022-10-22T00:54:33;94943.22;;;1.95;100.00
40384;BME280;26097;42.366;23.818;2022-10-22T00:57:35;94945.00;;;1.93;100.00
40384;BME280;26097;42.366;23.818;2022-10-22T01:00:35;94943.22;;;1.95;100.00
40384;BME280;26097;42.366;23.818;2022-10-22T01:03:36;94942.31;;;1.96;100.00
40384;BME280;26097;42.366;23.818;2022-10-22T01:06:36;94942.16;;;2.02;100.00
40384;BME280;26097;42.366;23.818;2022-10-22T01:16:58;94927.00;;;1.93;100.00
40384;BME280;26097;42.366;23.818;2022-10-22T01:23:24;94919.16;;;1.97;100.00
40384;BME280;26097;42.366;23.818;2022-10-22T01:29:57;94930.34;;;1.95;100.00
40384;BME280;26097;42.366;23.818;2022-10-22T01:33:05;94933.09;;;1.90;100.00
40384;BME280;26097;42.366;23.818;2022-10-22T01:36:06;94928.69;;;1.94;100.00
40384;BME280;26097;42.366;23.818;2022-10-22T01:39:08;94932.34;;;1.85;100.00
40384;BME280;26097;42.366;23.818;2022-10-22T01:42:12;94932.13;;;1.93;100.00
40384;BME280;26097;42.366;23.818;2022-10-22T01:45:13;94927.72;;;1.98;100.00
40384;BME280;26097;42.366;23.818;2022-10-22T01:54:55;94910.25;;;1.79;100.00
40384;BME280;26097;42.366;23.818;2022-10-22T02:01:54;94910.16;;;1.82;100.00
40384;BME280;26097;42.366;23.818;2022-10-22T02:08:21;94899.19;;;1.77;100.00
40384;BME280;26097;42.366;23.818;2022-10-22T02:11:22;94908.63;;;1.75;100.00
40384;BME280;26097;42.366;23.818;2022-10-22T02:14:24;94905.13;;;1.79;100.00
40384;BME280;26097;42.366;23.818;2022-10-22T02:17:28;94898.13;;;1.83;100.00
40384;BME280;26097;42.366;23.818;2022-10-22T02:20:35;94891.47;;;1.77;100.00
40384;BME280;26097;42.366;23.818;2022-10-22T02:23:36;94891.31;;;1.82;100.00
40384;BME280;26097;42.366;23.818;2022-10-22T02:26:51;94884.47;;;1.81;100.00
40384;BME280;26097;42.366;23.818;2022-10-22T02:33:21;94877.63;;;1.81;100.00
40384;BME280;26097;42.366;23.818;2022-10-22T02:36:22;94879.41;;;1.79;100.00
40384;BME280;26097;42.366;23.818;2022-10-22T02:39:24;94877.72;;;1.78;100.00
40384;BME280;26097;42.366;23.818;2022-10-22T02:42:27;94876.88;;;1.78;100.00
40384;BME280;26097;42.366;23.818;2022-10-22T02:45:27;94875.22;;;1.75;100.00
40384;BME280;26097;42.366;23.818;2022-10-22T02:48:28;94874.16;;;1.82;100.00
40384;BME280;26097;42.366;23.818;2022-10-22T02:51:29;94872.50;;;1.81;100.00
40384;BME280;26097;42.366;23.818;2022-10-22T02:54:29;94873.22;;;1.85;100.00
40384;BME280;26097;42.366;23.818;2022-10-22T02:57:30;94879.22;;;1.85;100.00
40384;BME280;26097;42.366;23.818;2022-10-22T03:00:30;94887.81;;;1.84;100.00
40384;BME280;26097;42.366;23.818;2022-10-22T03:03:31;94890.50;;;1.80;100.00
40384;BME280;26097;42.366;23.818;2022-10-22T03:06:31;94897.22;;;1.85;100.00
40384;BME280;26097;42.366;23.818;2022-10-22T03:09:32;94893.78;;;1.85;100.00
40384;BME280;26097;42.366;23.818;2022-10-22T03:12:32;94894.75;;;1.82;100.00
40384;BME280;26097;42.366;23.818;2022-10-22T03:15:32;94889.69;;;1.79;100.00
40384;BME280;26097;42.366;23.818;2022-10-22T03:18:33;94889.69;;;1.79;100.00
40384;BME280;26097;42.366;23.818;2022-10-22T03:21:41;94903.34;;;1.81;100.00
40384;BME280;26097;42.366;23.818;2022-10-22T03:24:45;94910.03;;;1.87;100.00
40384;BME280;26097;42.366;23.818;2022-10-22T03:27:47;94914.44;;;1.82;100.00
40384;BME280;26097;42.366;23.818;2022-10-22T03:30:48;94911.75;;;1.87;100.00
40384;BME280;26097;42.366;23.818;2022-10-22T03:33:49;94927.19;;;1.87;100.00
40384;BME280;26097;42.366;23.818;2022-10-22T03:36:50;94922.44;;;2.03;100.00
40384;BME280;26097;42.366;23.818;2022-10-22T03:39:52;94916.47;;;2.02;100.00
40384;BME280;26097;42.366;23.818;2022-10-22T03:42:52;94913.13;;;1.98;100.00
40384;BME280;26097;42.366;23.818;2022-10-22T03:45:53;94914.13;;;1.93;100.00
40384;BME280;26097;42.366;23.818;2022-10-22T03:48:53;94908.19;;;1.91;100.00
40384;BME280;26097;42.366;23.818;2022-10-22T03:51:54;94904.03;;;1.87;100.00
40384;BME280;26097;42.366;23.818;2022-10-22T03:54:54;94893.63;;;1.91;100.00
40384;BME280;26097;42.366;23.818;2022-10-22T03:57:55;94899.50;;;1.95;100.00
40384;BME280;26097;42.366;23.818;2022-10-22T04:00:55;94902.03;;;1.96;100.00
40384;BME280;26097;42.366;23.818;2022-10-22T04:03:56;94895.13;;;1.98;100.00
40384;BME280;26097;42.366;23.818;2022-10-22T04:06:56;94894.31;;;1.98;100.00
40384;BME280;26097;42.366;23.818;2022-10-22T04:09:57;94887.41;;;1.98;100.00
40384;BME280;26097;42.366;23.818;2022-10-22T04:12:57;94891.00;;;1.93;100.00
40384;BME280;26097;42.366;23.818;2022-10-22T04:16:08;94885.59;;;2.02;100.00
40384;BME280;26097;42.366;23.818;2022-10-22T04:19:09;94878.03;;;1.96;100.00
40384;BME280;26097;42.366;23.818;2022-10-22T04:22:09;94873.88;;;1.92;100.00
40384;BME280;26097;42.366;23.818;2022-10-22T04:25:10;94873.09;;;1.90;100.00
40384;BME280;26097;42.366;23.818;2022-10-22T04:28:10;94868.72;;;1.93;100.00
40384;BME280;26097;42.366;23.818;2022-10-22T04:31:11;94861.09;;;1.90;100.00
40384;BME280;26097;42.366;23.818;2022-10-22T04:34:12;94865.28;;;1.93;100.00
40384;BME280;26097;42.366;23.818;2022-10-22T04:37:12;94872.91;;;1.96;100.00
40384;BME280;26097;42.366;23.818;2022-10-22T04:40:13;94875.41;;;1.99;100.00
40384;BME280;26097;42.366;23.818;2022-10-22T04:43:13;94877.97;;;1.99;100.00
40384;BME280;26097;42.366;23.818;2022-10-22T04:46:14;94864.06;;;2.05;100.00
40384;BME280;26097;42.366;23.818;2022-10-22T04:49:15;94869.97;;;2.08;100.00
40384;BME280;26097;42.366;23.818;2022-10-22T04:52:16;94860.47;;;2.10;100.00
40384;BME280;26097;42.366;23.818;2022-10-22T04:55:16;94862.50;;;2.29;100.00
40384;BME280;26097;42.366;23.818;2022-10-22T04:58:16;94859.59;;;2.40;100.00
40384;BME280;26097;42.366;23.818;2022-10-22T05:01:19;94855.97;;;2.46;100.00
40384;BME280;26097;42.366;23.818;2022-10-22T05:04:20;94855.75;;;2.53;100.00
40384;BME280;26097;42.366;23.818;2022-10-22T05:07:21;94851.81;;;2.68;100.00
40384;BME280;26097;42.366;23.818;2022-10-22T05:10:22;94852.09;;;2.86;100.00
40384;BME280;26097;42.366;23.818;2022-10-22T05:13:23;94844.63;;;3.05;100.00
40384;BME280;26097;42.366;23.818;2022-10-22T05:16:24;94850.75;;;3.26;100.00
40384;BME280;26097;42.366;23.818;2022-10-22T05:19:27;94843.25;;;3.44;100.00
40384;BME280;26097;42.366;23.818;2022-10-22T05:22:28;94849.53;;;3.61;100.00
40384;BME280;26097;42.366;23.818;2022-10-22T05:25:29;94860.19;;;3.75;100.00
40384;BME280;26097;42.366;23.818;2022-10-22T05:28:30;94858.16;;;3.83;100.00
40384;BME280;26097;42.366;23.818;2022-10-22T05:31:31;94853.25;;;3.99;100.00
40384;BME280;26097;42.366;23.818;2022-10-22T05:34:31;94847.59;;;4.13;100.00
40384;BME280;26097;42.366;23.818;2022-10-22T05:37:32;94836.91;;;4.23;100.00
40384;BME280;26097;42.366;23.818;2022-10-22T05:40:32;94850.03;;;4.39;100.00
40384;BME280;26097;42.366;23.818;2022-10-22T05:43:33;94846.84;;;4.54;100.00
40384;BME280;26097;42.366;23.818;2022-10-22T05:46:34;94842.16;;;4.64;100.00
40384;BME280;26097;42.366;23.818;2022-10-22T05:49:35;94852.06;;;4.75;100.00
40384;BME280;26097;42.366;23.818;2022-10-22T05:52:35;94849.81;;;4.88;100.00
40384;BME280;26097;42.366;23.818;2022-10-22T05:55:36;94857.09;;;4.99;100.00
40384;BME280;26097;42.366;23.818;2022-10-22T05:58:38;94865.44;;;5.06;100.00
40384;BME280;26097;42.366;23.818;2022-10-22T06:01:39;94871.34;;;5.09;100.00
40384;BME280;26097;42.366;23.818;2022-10-22T06:04:39;94870.88;;;5.20;100.00
40384;BME280;26097;42.366;23.818;2022-10-22T06:07:40;94876.38;;;5.33;100.00
40384;BME280;26097;42.366;23.818;2022-10-22T06:10:42;94882.25;;;5.37;100.00
40384;BME280;26097;42.366;23.818;2022-10-22T06:13:44;94871.66;;;5.43;100.00
40384;BME280;26097;42.366;23.818;2022-10-22T06:16:45;94875.72;;;5.49;100.00
40384;BME280;26097;42.366;23.818;2022-10-22T06:19:45;94873.72;;;5.55;100.00
40384;BME280;26097;42.366;23.818;2022-10-22T06:22:46;94881.19;;;5.62;100.00
40384;BME280;26097;42.366;23.818;2022-10-22T06:25:57;94878.28;;;5.69;100.00
40384;BME280;26097;42.366;23.818;2022-10-22T06:28:58;94886.31;;;5.82;100.00
40384;BME280;26097;42.366;23.818;2022-10-22T06:31:58;94887.97;;;6.04;100.00
40384;BME280;26097;42.366;23.818;2022-10-22T06:34:59;94888.81;;;6.24;100.00
40384;BME280;26097;42.366;23.818;2022-10-22T06:37:59;94878.38;;;6.45;100.00
40384;BME280;26097;42.366;23.818;2022-10-22T06:41:07;94864.41;;;6.66;100.00
40384;BME280;26097;42.366;23.818;2022-10-22T06:44:16;94861.78;;;6.85;100.00
40384;BME280;26097;42.366;23.818;2022-10-22T06:47:16;94864.38;;;7.03;100.00
40384;BME280;26097;42.366;23.818;2022-10-22T06:50:17;94867.19;;;7.16;100.00
40384;BME280;26097;42.366;23.818;2022-10-22T06:53:17;94859.41;;;7.34;100.00
40384;BME280;26097;42.366;23.818;2022-10-22T06:56:20;94854.25;;;7.50;100.00
40384;BME280;26097;42.366;23.818;2022-10-22T06:59:21;94859.47;;;7.66;100.00
40384;BME280;26097;42.366;23.818;2022-10-22T07:02:21;94864.97;;;7.77;100.00
40384;BME280;26097;42.366;23.818;2022-10-22T07:05:21;94861.81;;;7.88;100.00
40384;BME280;26097;42.366;23.818;2022-10-22T07:08:22;94863.06;;;7.97;100.00
40384;BME280;26097;42.366;23.818;2022-10-22T07:11:24;94872.19;;;8.04;100.00
40384;BME280;26097;42.366;23.818;2022-10-22T07:14:25;94865.78;;;8.11;100.00
40384;BME280;26097;42.366;23.818;2022-10-22T07:17:25;94875.94;;;8.32;100.00
40384;BME280;26097;42.366;23.818;2022-10-22T07:20:26;94863.63;;;8.52;100.00
40384;BME280;26097;42.366;23.818;2022-10-22T07:23:27;94860.56;;;8.76;100.00
40384;BME280;26097;42.366;23.818;2022-10-22T07:26:28;94864.34;;;8.86;100.00
40384;BME280;26097;42.366;23.818;2022-10-22T07:29:29;94864.13;;;9.05;100.00
40384;BME280;26097;42.366;23.818;2022-10-22T07:32:30;94864.00;;;9.23;100.00
40384;BME280;26097;42.366;23.818;2022-10-22T07:35:30;94860.19;;;9.28;100.00
40384;BME280;26097;42.366;23.818;2022-10-22T07:38:31;94865.47;;;9.27;100.00
40384;BME280;26097;42.366;23.818;2022-10-22T07:41:32;94874.13;;;9.27;100.00
40384;BME280;26097;42.366;23.818;2022-10-22T07:44:32;94868.00;;;9.28;100.00
40384;BME280;26097;42.366;23.818;2022-10-22T07:47:33;94862.63;;;9.32;100.00
40384;BME280;26097;42.366;23.818;2022-10-22T07:50:33;94862.63;;;9.32;100.00
40384;BME280;26097;42.366;23.818;2022-10-22T07:53:33;94860.88;;;9.47;100.00
40384;BME280;26097;42.366;23.818;2022-10-22T07:56:34;94854.09;;;9.58;100.00
40384;BME280;26097;42.366;23.818;2022-10-22T07:59:34;94860.44;;;9.69;100.00
40384;BME280;26097;42.366;23.818;2022-10-22T08:02:35;94861.72;;;9.76;100.00
40384;BME280;26097;42.366;23.818;2022-10-22T08:05:35;94855.69;;;9.90;100.00
40384;BME280;26097;42.366;23.818;2022-10-22T08:08:35;94860.34;;;9.99;100.00
40384;BME280;26097;42.366;23.818;2022-10-22T08:11:36;94867.56;;;10.09;100.00
40384;BME280;26097;42.366;23.818;2022-10-22T08:14:37;94864.88;;;10.10;100.00
40384;BME280;26097;42.366;23.818;2022-10-22T08:17:37;94865.41;;;10.30;100.00
40384;BME280;26097;42.366;23.818;2022-10-22T08:20:38;94855.53;;;10.50;100.00
40384;BME280;26097;42.366;23.818;2022-10-22T08:23:39;94853.09;;;10.61;100.00
40384;BME280;26097;42.366;23.818;2022-10-22T08:26:40;94854.16;;;10.71;100.00
40384;BME280;26097;42.366;23.818;2022-10-22T08:29:41;94846.59;;;10.81;100.00
40384;BME280;26097;42.366;23.818;2022-10-22T08:32:41;94837.28;;;11.05;100.00
40384;BME280;26097;42.366;23.818;2022-10-22T08:35:47;94837.44;;;11.42;100.00
40384;BME280;26097;42.366;23.818;2022-10-22T08:38:47;94834.09;;;11.66;100.00
40384;BME280;26097;42.366;23.818;2022-10-22T08:49:23;94829.00;;;12.40;98.95
40384;BME280;26097;42.366;23.818;2022-10-22T08:52:25;94825.94;;;12.71;100.00
40384;BME280;26097;42.366;23.818;2022-10-22T08:55:25;94819.28;;;13.03;95.34
40384;BME280;26097;42.366;23.818;2022-10-22T09:08:22;94787.78;;;14.20;94.52
40384;BME280;26097;42.366;23.818;2022-10-22T09:11:36;94793.00;;;14.20;87.83
40384;BME280;26097;42.366;23.818;2022-10-22T09:14:37;94801.34;;;14.13;93.41
40384;BME280;26097;42.366;23.818;2022-10-22T09:17:50;94793.47;;;14.25;92.54
40384;BME280;26097;42.366;23.818;2022-10-22T09:24:38;94792.69;;;14.57;90.64
40384;BME280;26097;42.366;23.818;2022-10-22T09:27:39;94777.75;;;14.69;87.20
40384;BME280;26097;42.366;23.818;2022-10-22T09:30:39;94775.25;;;14.79;89.55
40384;BME280;26097;42.366;23.818;2022-10-22T09:33:43;94772.09;;;14.85;81.86
40384;BME280;26097;42.366;23.818;2022-10-22T09:36:43;94765.66;;;15.10;87.24
40384;BME280;26097;42.366;23.818;2022-10-22T09:39:46;94762.72;;;15.25;67.18
40384;BME280;26097;42.366;23.818;2022-10-22T09:42:47;94760.84;;;15.37;67.83
40384;BME280;26097;42.366;23.818;2022-10-22T09:45:55;94770.31;;;15.49;64.86
40384;BME280;26097;42.366;23.818;2022-10-22T09:49:04;94756.47;;;15.47;66.09
40384;BME280;26097;42.366;23.818;2022-10-22T09:52:23;94756.56;;;15.67;61.27
40384;BME280;26097;42.366;23.818;2022-10-22T09:55:25;94756.66;;;15.87;63.19
40384;BME280;26097;42.366;23.818;2022-10-22T09:58:26;94758.94;;;16.01;60.61
40384;BME280;26097;42.366;23.818;2022-10-22T10:01:32;94757.00;;;16.03;59.83
40384;BME280;26097;42.366;23.818;2022-10-22T10:04:34;94739.34;;;16.25;59.42
40384;BME280;26097;42.366;23.818;2022-10-22T10:07:39;94739.66;;;16.51;56.22
40384;BME280;26097;42.366;23.818;2022-10-22T10:17:41;94725.25;;;16.85;54.25
40384;BME280;26097;42.366;23.818;2022-10-22T10:30:26;94697.25;;;17.23;51.88
40384;BME280;26097;42.366;23.818;2022-10-22T10:33:36;94692.31;;;17.48;52.41
40384;BME280;26097;42.366;23.818;2022-10-22T10:43:27;94682.06;;;17.83;49.73
40384;BME280;26097;42.366;23.818;2022-10-22T10:46:53;94686.78;;;17.79;48.42
40384;BME280;26097;42.366;23.818;2022-10-22T11:00:22;94664.94;;;18.15;47.57
40384;BME280;26097;42.366;23.818;2022-10-22T11:06:48;94652.28;;;18.37;49.62
40384;BME280;26097;42.366;23.818;2022-10-22T11:09:56;94649.50;;;18.38;46.66
40384;BME280;26097;42.366;23.818;2022-10-22T11:13:08;94642.50;;;18.47;45.66
40384;BME280;26097;42.366;23.818;2022-10-22T11:19:29;94634.56;;;18.92;48.38
40384;BME280;26097;42.366;23.818;2022-10-22T11:22:40;94636.59;;;19.16;46.82
40384;BME280;26097;42.366;23.818;2022-10-22T11:25:45;94624.38;;;19.15;45.85
40384;BME280;26097;42.366;23.818;2022-10-22T11:28:50;94626.03;;;19.16;46.27
40384;BME280;26097;42.366;23.818;2022-10-22T11:31:52;94620.50;;;19.36;44.99
40384;BME280;26097;42.366;23.818;2022-10-22T11:34:57;94628.63;;;19.43;45.15
40384;BME280;26097;42.366;23.818;2022-10-22T11:38:00;94621.56;;;19.51;45.00
40384;BME280;26097;42.366;23.818;2022-10-22T11:41:23;94618.28;;;19.58;43.70
40384;BME280;26097;42.366;23.818;2022-10-22T11:44:23;94611.00;;;19.51;44.69
40384;BME280;26097;42.366;23.818;2022-10-22T11:50:58;94618.94;;;19.51;42.12
40384;BME280;26097;42.366;23.818;2022-10-22T11:54:06;94607.38;;;19.61;44.19
40384;BME280;26097;42.366;23.818;2022-10-22T11:57:26;94603.25;;;19.58;44.63
40384;BME280;26097;42.366;23.818;2022-10-22T12:00:45;94597.44;;;19.46;43.97
40384;BME280;26097;42.366;23.818;2022-10-22T12:07:33;94588.47;;;19.39;43.28
40384;BME280;26097;42.366;23.818;2022-10-22T12:10:47;94583.19;;;19.39;45.05
40384;BME280;26097;42.366;23.818;2022-10-22T12:20:11;94582.25;;;19.48;44.34
40384;BME280;26097;42.366;23.818;2022-10-22T12:23:12;94575.97;;;19.49;44.77
40384;BME280;26097;42.366;23.818;2022-10-22T12:26:26;94575.78;;;19.51;43.91
40384;BME280;26097;42.366;23.818;2022-10-22T12:29:30;94575.97;;;19.58;45.42
40384;BME280;26097;42.366;23.818;2022-10-22T12:32:37;94575.31;;;19.64;45.15
40384;BME280;26097;42.366;23.818;2022-10-22T12:35:44;94572.34;;;19.59;44.38
40384;BME280;26097;42.366;23.818;2022-10-22T12:38:45;94571.66;;;19.48;44.87
40384;BME280;26097;42.366;23.818;2022-10-22T12:41:46;94573.44;;;19.39;45.21
40384;BME280;26097;42.366;23.818;2022-10-22T12:44:47;94576.09;;;19.48;45.19
40384;BME280;26097;42.366;23.818;2022-10-22T12:47:49;94564.72;;;19.47;45.35
40384;BME280;26097;42.366;23.818;2022-10-22T12:50:56;94571.97;;;19.45;45.04
40384;BME280;26097;42.366;23.818;2022-10-22T12:54:06;94561.75;;;19.50;43.69
40384;BME280;26097;42.366;23.818;2022-10-22T12:57:14;94559.13;;;19.50;45.34
40384;BME280;26097;42.366;23.818;2022-10-22T13:00:27;94556.63;;;19.49;45.48
40384;BME280;26097;42.366;23.818;2022-10-22T13:03:44;94571.03;;;19.54;44.97
40384;BME280;26097;42.366;23.818;2022-10-22T13:06:50;94565.41;;;19.58;44.12
40384;BME280;26097;42.366;23.818;2022-10-22T13:12:57;94555.34;;;19.69;45.36
40384;BME280;26097;42.366;23.818;2022-10-22T13:16:21;94560.81;;;19.76;44.34
40384;BME280;26097;42.366;23.818;2022-10-22T13:23:01;94563.56;;;19.50;44.74
40384;BME280;26097;42.366;23.818;2022-10-22T13:29:10;94562.09;;;19.55;45.17
40384;BME280;26097;42.366;23.818;2022-10-22T13:32:30;94571.66;;;19.48;44.42
40384;BME280;26097;42.366;23.818;2022-10-22T13:35:33;94565.03;;;19.44;46.00
40384;BME280;26097;42.366;23.818;2022-10-22T13:38:35;94562.34;;;19.36;45.87
40384;BME280;26097;42.366;23.818;2022-10-22T13:41:38;94559.16;;;19.24;45.90
40384;BME280;26097;42.366;23.818;2022-10-22T13:44:39;94548.44;;;19.25;46.35
40384;BME280;26097;42.366;23.818;2022-10-22T13:47:41;94557.72;;;19.30;45.83
40384;BME280;26097;42.366;23.818;2022-10-22T13:50:44;94563.28;;;19.18;46.16
40384;BME280;26097;42.366;23.818;2022-10-22T13:53:45;94560.91;;;19.07;46.20
40384;BME280;26097;42.366;23.818;2022-10-22T13:56:46;94554.22;;;18.94;46.58
40384;BME280;26097;42.366;23.818;2022-10-22T13:59:47;94555.34;;;18.65;47.02
40384;BME280;26097;42.366;23.818;2022-10-22T14:02:49;94560.81;;;18.46;46.68
40384;BME280;26097;42.366;23.818;2022-10-22T14:05:51;94560.41;;;18.32;47.60
40384;BME280;26097;42.366;23.818;2022-10-22T14:08:58;94556.19;;;18.21;47.29
40384;BME280;26097;42.366;23.818;2022-10-22T14:11:58;94565.53;;;18.16;47.38
40384;BME280;26097;42.366;23.818;2022-10-22T14:14:58;94562.13;;;18.05;48.38
40384;BME280;26097;42.366;23.818;2022-10-22T14:17:59;94560.00;;;17.91;48.18
40384;BME280;26097;42.366;23.818;2022-10-22T14:21:01;94562.47;;;17.74;48.62
40384;BME280;26097;42.366;23.818;2022-10-22T14:24:09;94564.75;;;17.69;49.62
40384;BME280;26097;42.366;23.818;2022-10-22T14:27:13;94559.13;;;17.54;49.41
40384;BME280;26097;42.366;23.818;2022-10-22T14:30:17;94563.78;;;17.42;50.61
40384;BME280;26097;42.366;23.818;2022-10-22T14:33:36;94562.28;;;17.02;49.78
40384;BME280;26097;42.366;23.818;2022-10-22T14:36:36;94563.47;;;16.69;51.38
40384;BME280;26097;42.366;23.818;2022-10-22T14:39:36;94561.31;;;16.55;51.58
40384;BME280;26097;42.366;23.818;2022-10-22T14:42:42;94565.03;;;16.42;52.12
40384;BME280;26097;42.366;23.818;2022-10-22T14:45:43;94567.41;;;16.26;52.55
40384;BME280;26097;42.366;23.818;2022-10-22T14:48:44;94576.00;;;16.08;53.27
40384;BME280;26097;42.366;23.818;2022-10-22T14:51:44;94572.91;;;15.83;53.98
40384;BME280;26097;42.366;23.818;2022-10-22T14:54:44;94573.16;;;15.61;55.12
40384;BME280;26097;42.366;23.818;2022-10-22T14:57:45;94572.44;;;15.39;55.26
40384;BME280;26097;42.366;23.818;2022-10-22T15:00:45;94575.50;;;15.13;55.95
40384;BME280;26097;42.366;23.818;2022-10-22T15:03:46;94584.53;;;14.89;56.74
40384;BME280;26097;42.366;23.818;2022-10-22T15:06:47;94584.66;;;14.66;57.81
40384;BME280;26097;42.366;23.818;2022-10-22T15:09:47;94584.13;;;14.41;58.23
40384;BME280;26097;42.366;23.818;2022-10-22T15:12:48;94579.09;;;14.17;59.21
40384;BME280;26097;42.366;23.818;2022-10-22T15:15:48;94584.09;;;13.88;60.36
40384;BME280;26097;42.366;23.818;2022-10-22T15:18:49;94587.63;;;13.65;61.40
40384;BME280;26097;42.366;23.818;2022-10-22T15:21:49;94593.03;;;13.41;61.91
40384;BME280;26097;42.366;23.818;2022-10-22T15:24:50;94595.53;;;13.20;62.32
40384;BME280;26097;42.366;23.818;2022-10-22T15:27:51;94593.63;;;12.99;62.82
40384;BME280;26097;42.366;23.818;2022-10-22T15:31:01;94601.13;;;12.81;64.18
40384;BME280;26097;42.366;23.818;2022-10-22T15:34:04;94593.97;;;12.60;64.74
40384;BME280;26097;42.366;23.818;2022-10-22T15:37:07;94592.63;;;12.43;65.10
40384;BME280;26097;42.366;23.818;2022-10-22T15:40:08;94591.16;;;12.27;65.50
40384;BME280;26097;42.366;23.818;2022-10-22T15:43:09;94594.78;;;12.13;65.79
40384;BME280;26097;42.366;23.818;2022-10-22T15:46:16;94596.19;;;12.06;66.04
40384;BME280;26097;42.366;23.818;2022-10-22T15:49:17;94596.84;;;11.97;66.10
40384;BME280;26097;42.366;23.818;2022-10-22T15:52:17;94599.41;;;11.85;67.05
40384;BME280;26097;42.366;23.818;2022-10-22T15:55:17;94599.34;;;11.74;67.55
40384;BME280;26097;42.366;23.818;2022-10-22T15:58:18;94603.22;;;11.68;67.84
40384;BME280;26097;42.366;23.818;2022-10-22T16:01:18;94591.56;;;11.61;68.37
40384;BME280;26097;42.366;23.818;2022-10-22T16:04:19;94594.50;;;11.56;68.50
40384;BME280;26097;42.366;23.818;2022-10-22T16:07:19;94601.03;;;11.51;68.73
40384;BME280;26097;42.366;23.818;2022-10-22T16:10:19;94613.78;;;11.42;69.56
40384;BME280;26097;42.366;23.818;2022-10-22T16:13:20;94618.31;;;11.27;69.89
40384;BME280;26097;42.366;23.818;2022-10-22T16:16:24;94621.53;;;11.18;70.63
40384;BME280;26097;42.366;23.818;2022-10-22T16:19:25;94609.88;;;11.11;70.55
40384;BME280;26097;42.366;23.818;2022-10-22T16:22:25;94613.88;;;10.91;71.64
40384;BME280;26097;42.366;23.818;2022-10-22T16:25:26;94618.13;;;10.79;71.80
40384;BME280;26097;42.366;23.818;2022-10-22T16:28:26;94626.09;;;10.64;72.86
40384;BME280;26097;42.366;23.818;2022-10-22T16:31:27;94627.41;;;10.57;72.94
40384;BME280;26097;42.366;23.818;2022-10-22T16:34:27;94633.66;;;10.41;73.80
40384;BME280;26097;42.366;23.818;2022-10-22T16:37:28;94630.28;;;10.26;74.67
40384;BME280;26097;42.366;23.818;2022-10-22T16:40:28;94632.22;;;10.10;75.43
40384;BME280;26097;42.366;23.818;2022-10-22T16:43:28;94627.69;;;9.99;75.49
40384;BME280;26097;42.366;23.818;2022-10-22T16:46:29;94626.44;;;9.92;76.83
40384;BME280;26097;42.366;23.818;2022-10-22T16:49:30;94632.78;;;9.88;76.50
40384;BME280;26097;42.366;23.818;2022-10-22T16:52:31;94628.28;;;9.77;77.02
40384;BME280;26097;42.366;23.818;2022-10-22T16:55:35;94639.44;;;9.64;78.11
40384;BME280;26097;42.366;23.818;2022-10-22T16:58:36;94642.47;;;9.58;77.94
40384;BME280;26097;42.366;23.818;2022-10-22T17:01:37;94638.00;;;9.46;79.15
40384;BME280;26097;42.366;23.818;2022-10-22T17:04:37;94642.22;;;9.34;79.60
40384;BME280;26097;42.366;23.818;2022-10-22T17:07:37;94642.97;;;9.21;80.74
40384;BME280;26097;42.366;23.818;2022-10-22T17:10:38;94654.34;;;9.06;81.83
40384;BME280;26097;42.366;23.818;2022-10-22T17:13:39;94646.81;;;9.01;82.64
40384;BME280;26097;42.366;23.818;2022-10-22T17:16:40;94643.28;;;9.02;83.56
40384;BME280;26097;42.366;23.818;2022-10-22T17:19:41;94633.69;;;9.03;83.93
40384;BME280;26097;42.366;23.818;2022-10-22T17:22:41;94635.19;;;9.07;84.07
40384;BME280;26097;42.366;23.818;2022-10-22T17:25:43;94635.28;;;8.91;88.08
40384;BME280;26097;42.366;23.818;2022-10-22T17:28:44;94631.94;;;8.89;88.79
40384;BME280;26097;42.366;23.818;2022-10-22T17:31:44;94626.09;;;8.99;88.27
40384;BME280;26097;42.366;23.818;2022-10-22T17:34:44;94631.84;;;9.05;87.34
40384;BME280;26097;42.366;23.818;2022-10-22T17:37:45;94614.00;;;9.13;86.56
40384;BME280;26097;42.366;23.818;2022-10-22T17:40:45;94611.13;;;9.18;86.05
40384;BME280;26097;42.366;23.818;2022-10-22T17:43:46;94605.81;;;9.19;85.77
40384;BME280;26097;42.366;23.818;2022-10-22T17:46:46;94616.03;;;9.22;85.36
40384;BME280;26097;42.366;23.818;2022-10-22T17:49:48;94624.22;;;9.16;87.46
40384;BME280;26097;42.366;23.818;2022-10-22T17:52:49;94611.88;;;9.05;87.37